Time;durP1;ratioP1;P1;durP2;ratioP2;P2;SDS_P1;SDS_P2;PMS_P1;PMS_P2;Temp;Humidity;BMP_temperature;BMP_pressure;BME280_temperature;BME280_humidity;BME280_pressure;Samples;Min_cycle;Max_cycle;Signal;HPM_P1;HPM_P2
2021/05/28 00:00:00;;;;;;;21.77;9.75;;;12.80;99.90;;;13.08;73.53;102309.75;5095360;28;20056;-71
2021/05/28 00:02:28;;;;;;;16.02;9.30;;;12.80;99.90;;;12.93;73.83;102311.34;5095394;28;20040;-69
2021/05/28 00:04:56;;;;;;;10.65;8.52;;;12.70;99.90;;;12.72;73.71;102319.97;5095319;28;20075;-69
2021/05/28 00:07:24;;;;;;;13.32;7.55;;;12.50;99.90;;;12.57;74.29;102310.09;5095161;28;20052;-69
2021/05/28 00:09:52;;;;;;;11.13;8.05;;;12.30;99.90;;;12.46;74.37;102316.16;5076936;28;20044;-69
2021/05/28 00:12:20;;;;;;;10.07;7.60;;;12.20;99.90;;;12.30;74.78;102316.84;5095038;28;20121;-69
2021/05/28 00:14:48;;;;;;;9.85;7.78;;;12.00;99.90;;;12.31;75.10;102311.56;5094970;28;20044;-69
2021/05/28 00:17:16;;;;;;;9.35;7.57;;;12.00;99.90;;;12.21;74.75;102307.03;5095046;28;20048;-72
2021/05/28 00:19:44;;;;;;;9.15;7.43;;;12.00;99.90;;;12.16;75.11;102306.06;5094900;28;20035;-69
2021/05/28 00:22:12;;;;;;;11.95;7.30;;;11.90;99.90;;;12.17;75.26;102301.66;5094874;28;20396;-69
2021/05/28 00:24:40;;;;;;;9.02;6.78;;;11.90;99.90;;;12.17;75.27;102297.25;5076471;28;20489;-69
2021/05/28 00:27:09;;;;;;;11.70;8.20;;;11.80;99.90;;;12.05;75.11;102280.28;5094898;28;20075;-69
2021/05/28 00:29:37;;;;;;;7.65;6.80;;;11.90;99.90;;;12.20;75.66;102309.66;5094535;28;20051;-69
2021/05/28 00:32:05;;;;;;;8.95;7.20;;;11.90;99.90;;;12.19;75.64;102311.44;5094727;28;20044;-69
2021/05/28 00:34:33;;;;;;;16.92;9.65;;;11.90;99.90;;;12.22;75.46;102310.56;5076303;28;20044;-69
2021/05/28 00:37:01;;;;;;;14.52;8.82;;;11.90;99.90;;;12.31;75.56;102316.84;5094655;28;20123;-68
2021/05/28 00:39:29;;;;;;;7.75;6.47;;;12.00;99.90;;;12.17;74.57;102315.84;5094258;28;20078;-69
2021/05/28 00:41:57;;;;;;;7.75;5.50;;;11.90;99.90;;;11.99;73.96;102317.34;5094315;28;20039;-69
2021/05/28 00:44:29;;;;;;;6.10;5.60;;;11.70;99.90;;;11.76;73.88;102320.59;5094479;28;20052;-69
2021/05/28 00:46:57;;;;;;;6.10;5.50;;;11.50;99.90;;;11.60;73.98;102312.34;5094481;28;20063;-69
2021/05/28 00:49:25;;;;;;;5.55;5.15;;;11.30;99.90;;;11.45;74.12;102314.78;5094474;28;20070;-70
2021/05/28 00:51:54;;;;;;;5.40;5.05;;;11.20;99.90;;;11.35;74.30;102313.75;5094608;28;20059;-69
2021/05/28 00:54:22;;;;;;;5.30;4.97;;;11.10;99.90;;;11.23;74.66;102316.19;5094060;28;20154;-69
2021/05/28 00:56:51;;;;;;;5.40;5.00;;;10.90;99.90;;;11.22;75.17;102319.72;5094263;28;20040;-70
2021/05/28 00:59:20;;;;;;;5.78;5.38;;;10.90;99.90;;;11.12;75.47;102301.00;5093886;28;20067;-69
2021/05/28 01:01:49;;;;;;;4.80;4.50;;;10.90;99.90;;;11.18;75.93;102315.25;5094093;28;20059;-68
2021/05/28 01:04:17;;;;;;;4.43;3.95;;;10.90;99.90;;;11.06;75.82;102303.53;5093861;28;20048;-69
2021/05/28 01:06:45;;;;;;;5.28;4.90;;;10.90;99.90;;;11.22;76.36;102318.81;5075835;28;20040;-69
2021/05/28 01:09:13;;;;;;;6.20;5.70;;;10.90;99.90;;;11.14;76.46;102328.41;5093561;28;20093;-69
2021/05/28 01:11:41;;;;;;;5.60;5.20;;;10.90;99.90;;;11.06;76.23;102327.38;5075656;28;20555;-69
2021/05/28 01:14:10;;;;;;;5.40;5.03;;;10.80;99.90;;;11.01;76.00;102329.06;5075718;28;20371;-69
2021/05/28 01:16:37;;;;;;;6.32;5.75;;;10.70;99.90;;;11.09;75.86;102325.66;5094152;28;20474;-69
2021/05/28 01:19:06;;;;;;;4.88;4.50;;;10.80;99.90;;;11.03;75.89;102325.59;5093756;28;20186;-69
2021/05/28 01:21:35;;;;;;;9.13;4.28;;;10.70;99.90;;;10.84;75.53;102319.06;5075597;28;20116;-68
2021/05/28 01:24:05;;;;;;;4.90;4.60;;;10.60;99.90;;;10.86;76.23;102321.72;5093282;28;20138;-69
2021/05/28 01:26:33;;;;;;;5.05;4.70;;;10.60;99.90;;;10.94;76.64;102320.13;5093218;28;20071;-69
2021/05/28 01:29:01;;;;;;;6.53;5.90;;;10.60;99.90;;;11.01;76.85;102321.13;5093655;28;20051;-72
2021/05/28 01:31:31;;;;;;;5.20;4.85;;;10.70;99.90;;;11.09;76.87;102314.19;5093045;28;20036;-69
2021/05/28 01:33:59;;;;;;;14.82;10.65;;;10.70;99.90;;;11.21;77.30;102311.72;5075223;28;20076;-69
2021/05/28 01:36:27;;;;;;;17.77;14.63;;;10.90;99.90;;;11.39;77.48;102307.63;5093436;28;20524;-69
2021/05/28 01:38:54;;;;;;;20.55;15.10;;;11.10;99.90;;;11.51;77.75;102307.81;5093389;28;20414;-69
2021/05/28 01:41:29;;;;;;;23.85;17.10;;;11.20;99.90;;;11.62;78.18;102310.63;5075100;28;20059;-69
2021/05/28 01:43:57;;;;;;;29.35;21.15;;;11.40;99.90;;;11.74;78.54;102301.13;5092911;28;20052;-71
2021/05/28 01:46:25;;;;;;;32.55;22.33;;;11.50;99.90;;;11.87;78.49;102309.22;5093219;28;20139;-68
2021/05/28 01:48:53;;;;;;;33.95;23.05;;;11.60;99.90;;;11.93;78.94;102310.19;5093107;28;20070;-69
2021/05/28 01:51:21;;;;;;;32.97;23.30;;;11.70;99.90;;;12.01;78.94;102318.25;5093079;28;20096;-68
2021/05/28 01:53:49;;;;;;;35.15;23.58;;;11.80;99.90;;;11.91;78.69;102309.28;5092989;28;20093;-69
2021/05/28 01:56:17;;;;;;;34.60;23.02;;;11.80;99.90;;;11.98;78.88;102326.19;5092737;28;20496;-68
2021/05/28 01:58:46;;;;;;;35.15;24.80;;;11.80;99.90;;;12.00;78.83;102337.69;5092999;28;20115;-68
2021/05/28 02:01:14;;;;;;;30.85;23.27;;;11.80;99.90;;;11.93;78.74;102331.41;5092812;28;20060;-69
2021/05/28 02:03:42;;;;;;;30.75;22.85;;;11.80;99.90;;;12.06;78.63;102336.00;5092861;28;20101;-68
2021/05/28 02:06:10;;;;;;;38.10;23.88;;;11.80;99.90;;;12.12;78.79;102343.13;5092495;28;20044;-69
2021/05/28 02:08:38;;;;;;;32.70;22.23;;;11.80;99.90;;;12.15;78.40;102338.78;5092481;28;20436;-69
2021/05/28 02:11:06;;;;;;;32.95;23.45;;;11.90;99.90;;;11.64;78.31;102239.97;5092693;28;20052;-69
2021/05/28 02:13:33;;;;;;;36.28;23.50;;;12.00;99.90;;;12.25;78.00;102338.00;5092864;28;20044;-69
2021/05/28 02:16:03;;;;;;;27.13;20.75;;;12.00;99.90;;;12.27;77.80;102335.41;5092632;28;20043;-69
2021/05/28 02:18:31;;;;;;;28.73;21.90;;;12.10;99.90;;;12.29;77.69;102337.19;5092776;28;20093;-69
2021/05/28 02:20:59;;;;;;;27.67;19.00;;;12.10;99.90;;;12.31;77.73;102338.09;5092370;28;20511;-68
2021/05/28 02:23:27;;;;;;;25.65;18.05;;;12.10;99.90;;;12.32;77.26;102334.59;5092131;28;20055;-68
2021/05/28 02:25:55;;;;;;;25.10;17.13;;;12.10;99.90;;;12.31;77.13;102332.78;5092611;28;20048;-71
2021/05/28 02:28:23;;;;;;;25.95;17.40;;;12.10;99.90;;;12.23;77.35;102325.63;5092297;28;20437;-69
2021/05/28 02:30:51;;;;;;;21.85;16.63;;;12.10;99.90;;;12.34;77.36;102339.91;5092586;28;20040;-70
2021/05/28 02:33:19;;;;;;;22.08;16.02;;;12.10;99.90;;;12.34;77.12;102338.16;5092646;28;20047;-69
2021/05/28 02:35:47;;;;;;;24.67;15.73;;;12.10;99.90;;;12.23;77.22;102341.53;5092530;28;20135;-69
2021/05/28 02:38:15;;;;;;;23.23;15.73;;;12.00;99.90;;;12.26;77.28;102344.22;5092234;28;20491;-68
2021/05/28 02:40:43;;;;;;;23.55;15.40;;;12.00;99.90;;;12.21;77.55;102335.31;5074050;28;20044;-69
2021/05/28 02:43:11;;;;;;;19.45;14.27;;;12.00;99.90;;;12.24;77.71;102346.84;5091584;28;20044;-69
2021/05/28 02:45:39;;;;;;;23.55;15.73;;;12.00;99.90;;;12.31;77.39;102348.69;5092270;28;20047;-69
2021/05/28 02:48:08;;;;;;;19.08;14.40;;;12.00;99.90;;;12.21;77.44;102338.88;5092146;28;20443;-69
2021/05/28 02:50:36;;;;;;;22.95;15.45;;;12.10;99.90;;;12.38;77.56;102355.00;5092115;28;20135;-69
2021/05/28 02:53:04;;;;;;;19.17;13.95;;;12.10;99.90;;;12.36;77.23;102364.69;5092199;28;20098;-69
2021/05/28 02:55:33;;;;;;;19.63;13.88;;;12.10;99.90;;;12.43;77.09;102364.78;5091927;28;20051;-69
2021/05/28 02:58:00;;;;;;;23.48;15.32;;;12.10;99.90;;;12.38;77.33;102358.53;5073795;28;20044;-69
2021/05/28 03:00:28;;;;;;;17.92;14.30;;;12.10;99.90;;;12.37;77.18;102363.81;5092239;28;20040;-69
2021/05/28 03:02:57;;;;;;;21.63;14.60;;;12.10;99.90;;;12.25;76.98;102368.97;5092275;28;20052;-69
2021/05/28 03:05:25;;;;;;;21.23;14.43;;;12.00;99.90;;;12.33;77.03;102369.97;5092024;28;20437;-69
2021/05/28 03:07:53;;;;;;;18.70;15.20;;;12.10;99.90;;;12.37;77.33;102374.41;5092137;28;20397;-69
2021/05/28 03:10:21;;;;;;;20.92;14.70;;;12.10;99.90;;;12.40;77.00;102374.47;5092176;28;20076;-68
2021/05/28 03:12:49;;;;;;;19.55;16.27;;;12.20;99.90;;;12.34;77.01;102369.09;5092252;28;20126;-69
2021/05/28 03:15:17;;;;;;;19.77;15.00;;;12.20;99.90;;;12.27;76.75;102369.91;5092120;28;20044;-69
2021/05/28 03:17:46;;;;;;;19.50;15.13;;;12.10;99.90;;;12.30;76.87;102367.25;5073944;28;20052;-69
2021/05/28 03:20:21;;;;;;;18.35;14.43;;;12.10;99.90;;;12.19;77.25;102348.56;5091989;28;20067;-70
2021/05/28 03:22:49;;;;;;;19.48;14.57;;;12.10;99.90;;;12.31;77.50;102361.97;5074062;28;20052;-68
2021/05/28 03:25:18;;;;;;;18.85;15.20;;;12.10;99.90;;;12.33;77.23;102368.19;5073513;28;20088;-69
2021/05/28 03:27:48;;;;;;;22.83;15.02;;;12.10;99.90;;;12.20;77.47;102366.25;5092161;28;20052;-69
2021/05/28 03:30:18;;;;;;;18.05;13.95;;;12.00;99.90;;;12.23;77.43;102368.06;5091901;28;20044;-69
2021/05/28 03:32:46;;;;;;;21.75;15.70;;;12.00;99.90;;;11.18;79.50;102357.63;5091803;28;20092;-69
2021/05/28 03:35:14;;;;;;;22.33;16.10;;;11.40;99.90;;;11.07;81.69;102360.94;5092032;28;20043;-68
2021/05/28 03:37:42;;;;;;;21.88;16.05;;;10.90;99.90;;;11.28;81.50;102362.22;5091890;28;20131;-69
2021/05/28 03:40:12;;;;;;;21.35;15.90;;;11.00;99.90;;;11.45;81.16;102363.38;5091527;28;20056;-70
2021/05/28 03:42:40;;;;;;;21.65;16.85;;;11.20;99.90;;;11.17;81.81;102360.25;5073741;28;20520;-69
2021/05/28 03:45:10;;;;;;;30.23;18.13;;;11.00;99.90;;;11.25;81.73;102377.13;5073870;28;20075;-69
2021/05/28 03:47:38;;;;;;;20.77;16.20;;;11.10;99.90;;;11.38;81.60;102374.72;5092005;28;20044;-69
2021/05/28 03:50:08;;;;;;;19.85;16.50;;;11.20;99.90;;;11.50;81.59;102369.63;5073638;28;20056;-70
2021/05/28 03:52:36;;;;;;;21.30;16.95;;;11.30;99.90;;;11.37;81.38;102364.09;5091763;28;20090;-70
2021/05/28 03:55:07;;;;;;;27.77;19.52;;;11.30;99.90;;;10.97;81.66;102374.88;5094732;28;20082;-68
2021/05/28 03:57:35;;;;;;;26.33;18.10;;;11.00;99.90;;;10.77;83.40;102378.06;5095501;28;20076;-68
2021/05/28 04:00:06;;;;;;;22.65;19.02;;;10.60;99.90;;;10.86;83.71;102372.03;5095015;28;20040;-69
2021/05/28 04:02:39;;;;;;;26.20;19.33;;;10.60;99.90;;;10.39;84.16;102381.72;5095157;28;20052;-69
2021/05/28 04:05:10;;;;;;;24.83;20.60;;;10.40;99.90;;;10.06;86.89;102375.66;5095271;28;20040;-68
2021/05/28 04:07:39;;;;;;;29.95;21.58;;;10.00;99.90;;;9.91;88.03;102380.63;5095257;28;20044;-69
2021/05/28 04:10:08;;;;;;;37.53;20.67;;;9.80;99.90;;;9.67;87.84;102351.88;5095093;28;20036;-69
2021/05/28 04:12:36;;;;;;;38.90;22.75;;;9.70;99.90;;;9.71;89.01;102376.63;5095048;28;20044;-69
2021/05/28 04:15:07;;;;;;;26.65;22.38;;;9.60;99.90;;;10.06;88.65;102374.78;5094994;28;20128;-69
2021/05/28 04:17:35;;;;;;;44.17;23.98;;;9.80;99.90;;;9.71;89.26;102374.88;5094952;28;20044;-69
2021/05/28 04:20:05;;;;;;;47.53;24.77;;;9.60;99.90;;;9.31;90.65;102377.41;5094993;28;20094;-70
2021/05/28 04:22:33;;;;;;;32.00;24.10;;;9.20;99.90;;;9.71;91.60;102372.25;5094725;28;20427;-71
2021/05/28 04:25:01;;;;;;;47.72;24.60;;;9.50;99.90;;;9.99;90.56;102366.69;5094954;28;20134;-69
2021/05/28 04:27:29;;;;;;;36.90;26.80;;;9.80;99.90;;;10.03;89.79;102372.94;5094493;28;20105;-69
2021/05/28 04:29:57;;;;;;;31.25;25.13;;;9.80;99.90;;;10.33;89.52;102383.31;5094562;28;20508;-69
2021/05/28 04:32:26;;;;;;;65.43;27.27;;;10.10;99.90;;;10.39;88.43;102383.44;5094773;28;20507;-68
2021/05/28 04:34:53;;;;;;;30.23;24.75;;;10.20;99.90;;;10.61;88.52;102386.56;5094456;28;20066;-71
2021/05/28 04:37:21;;;;;;;36.42;25.52;;;10.40;99.90;;;10.66;87.51;102387.56;5094713;28;20075;-69
2021/05/28 04:39:49;;;;;;;36.60;27.98;;;10.50;99.90;;;10.85;87.49;102391.44;5094603;28;20079;-70
2021/05/28 04:42:17;;;;;;;36.28;28.15;;;10.60;99.90;;;10.89;86.86;102396.81;5094665;28;20050;-69
2021/05/28 04:44:45;;;;;;;32.80;26.55;;;10.70;99.90;;;11.03;86.67;102391.78;5094594;28;20105;-69
2021/05/28 04:47:13;;;;;;;36.65;28.15;;;10.80;99.90;;;11.04;86.25;102379.41;5094496;28;20481;-69
2021/05/28 04:49:42;;;;;;;46.38;29.65;;;10.90;99.90;;;10.94;85.60;102385.44;5094488;28;20048;-69
2021/05/28 04:52:10;;;;;;;44.65;28.58;;;10.80;99.90;;;10.44;87.00;102392.38;5094324;28;20056;-70
2021/05/28 04:54:38;;;;;;;38.03;31.15;;;10.40;99.90;;;10.62;87.56;102398.03;5076173;28;20075;-69
2021/05/28 04:57:06;;;;;;;37.47;29.50;;;10.40;99.90;;;10.81;87.27;102389.59;5075596;28;20044;-69
2021/05/28 04:59:34;;;;;;;37.50;29.08;;;10.60;99.90;;;10.76;86.59;102392.13;5094294;28;20046;-69
2021/05/28 05:02:02;;;;;;;87.72;29.58;;;10.60;99.90;;;10.08;88.05;102397.75;5094089;28;20040;-69
2021/05/28 05:04:30;;;;;;;54.40;28.95;;;10.10;99.90;;;9.76;89.73;102398.75;5093656;28;20054;-69
2021/05/28 05:06:59;;;;;;;33.28;26.33;;;9.70;99.90;;;10.04;90.08;102403.81;5093200;28;20051;-69
2021/05/28 05:09:27;;;;;;;43.60;28.85;;;9.70;99.90;;;10.04;89.59;102401.19;5094045;28;20044;-69
2021/05/28 05:11:55;;;;;;;43.85;29.70;;;9.80;99.90;;;10.11;89.90;102405.78;5075659;28;20119;-69
2021/05/28 05:14:23;;;;;;;39.53;28.52;;;9.80;99.90;;;10.31;89.67;102406.19;5093964;28;20046;-69
2021/05/28 05:16:51;;;;;;;38.90;28.27;;;9.90;99.90;;;10.52;89.16;102418.13;5093819;28;20052;-69
2021/05/28 05:19:19;;;;;;;46.90;30.65;;;10.20;99.90;;;10.66;88.71;102421.97;5075599;28;20048;-69
2021/05/28 05:21:48;;;;;;;39.20;28.77;;;10.30;99.90;;;9.65;87.96;102292.84;5075681;28;20059;-70
2021/05/28 05:24:16;;;;;;;49.92;29.02;;;10.30;99.90;;;10.18;88.96;102425.31;5075450;28;20069;-69
2021/05/28 05:26:44;;;;;;;74.15;30.10;;;10.00;99.90;;;9.89;90.40;102422.00;5093829;28;20113;-70
2021/05/28 05:29:13;;;;;;;50.95;30.55;;;9.80;99.90;;;9.91;91.22;102417.63;5093444;28;20421;-69
2021/05/28 05:31:40;;;;;;;42.22;29.88;;;9.70;99.90;;;9.53;91.22;102348.03;5093207;28;20044;-69
2021/05/28 05:34:09;;;;;;;40.13;30.15;;;9.70;99.90;;;10.00;91.39;102415.19;5075274;28;20091;-69
2021/05/28 05:36:39;;;;;;;48.42;31.20;;;9.70;99.90;;;10.19;91.18;102421.78;5093232;28;20039;-69
2021/05/28 05:39:08;;;;;;;;;;;9.80;99.90;;;10.60;90.82;102428.88;5093745;28;20127;-69
2021/05/28 05:41:36;;;;;;;37.83;28.85;;;10.30;99.90;;;10.88;90.02;102428.53;5093521;28;19924;-70
2021/05/28 05:44:05;;;;;;;38.17;30.30;;;10.60;99.90;;;11.11;89.48;102432.50;5093480;28;20036;-70
2021/05/28 05:46:34;;;;;;;39.95;29.75;;;10.80;99.90;;;11.24;88.76;102434.53;5093317;28;20056;-70
2021/05/28 05:49:03;;;;;;;42.70;31.67;;;11.00;99.90;;;11.18;87.80;102410.59;5075113;28;20047;-70
2021/05/28 05:51:31;;;;;;;46.33;31.73;;;11.10;99.90;;;11.37;87.21;102428.59;5075188;28;20056;-68
2021/05/28 05:53:59;;;;;;;39.90;31.20;;;11.20;99.90;;;11.48;87.06;102434.94;5093526;28;20048;-70
2021/05/28 05:56:28;;;;;;;39.67;30.67;;;11.30;99.90;;;11.38;86.03;102440.94;5075251;28;20044;-70
2021/05/28 05:58:57;;;;;;;39.73;30.67;;;11.20;99.90;;;11.18;86.21;102437.06;5093537;28;20048;-71
2021/05/28 06:01:25;;;;;;;38.95;28.48;;;11.10;99.90;;;11.27;86.34;102434.59;5075601;28;20067;-70
2021/05/28 06:03:53;;;;;;;42.03;31.52;;;11.00;99.90;;;11.44;86.23;102433.13;5093682;28;20337;-69
2021/05/28 06:06:21;;;;;;;35.40;28.63;;;11.20;99.90;;;11.40;86.43;102441.88;5092816;28;20446;-69
2021/05/28 06:08:51;;;;;;;39.13;30.38;;;11.20;99.90;;;11.69;86.44;102450.38;5074750;28;20052;-69
2021/05/28 06:11:19;;;;;;;35.30;29.23;;;11.40;99.90;;;11.81;86.01;102452.34;5074821;28;20101;-69
2021/05/28 06:13:47;;;;;;;36.83;27.48;;;11.50;99.90;;;11.78;84.84;102437.25;5092661;28;20040;-72
2021/05/28 06:16:16;;;;;;;34.05;27.08;;;11.60;99.90;;;11.88;84.69;102454.19;5092583;28;20229;-71
2021/05/28 06:18:44;;;;;;;35.50;28.13;;;11.60;99.90;;;11.61;85.23;102457.28;5092427;28;20465;-72
2021/05/28 06:21:12;;;;;;;34.58;27.73;;;11.40;99.90;;;11.80;85.25;102462.03;5092661;28;20040;-71
2021/05/28 06:23:40;;;;;;;37.50;30.13;;;11.60;99.90;;;11.53;84.61;102366.13;5092730;28;20051;-73
2021/05/28 06:26:08;;;;;;;39.70;30.90;;;11.80;99.90;;;12.20;84.31;102472.38;5074486;28;20139;-73
2021/05/28 06:28:36;;;;;;;38.78;29.10;;;11.90;99.90;;;12.11;83.94;102474.91;5092667;28;20135;-72
2021/05/28 06:31:04;;;;;;;38.40;29.05;;;11.90;99.90;;;12.27;83.91;102471.59;5092400;28;20044;-72
2021/05/28 06:33:33;;;;;;;39.17;28.65;;;12.00;99.90;;;12.21;84.20;102478.59;5074101;28;20044;-71
2021/05/28 06:36:01;;;;;;;37.47;28.35;;;11.90;99.90;;;12.48;83.76;102484.28;5092197;28;20038;-69
2021/05/28 06:38:29;;;;;;;38.38;27.92;;;12.20;99.90;;;12.69;83.61;102480.16;5092458;28;20161;-69
2021/05/28 06:40:57;;;;;;;34.00;26.50;;;12.40;99.90;;;12.62;82.86;102478.28;5092430;28;20062;-68
2021/05/28 06:43:25;;;;;;;38.65;25.90;;;12.50;99.90;;;12.56;83.59;102472.88;5092399;28;20044;-69
2021/05/28 06:45:53;;;;;;;34.22;25.85;;;12.40;99.90;;;12.82;83.05;102482.94;5092733;28;20393;-69
2021/05/28 06:48:21;;;;;;;32.45;24.33;;;12.60;99.90;;;12.80;82.05;102474.06;5092407;28;20056;-69
2021/05/28 06:50:50;;;;;;;32.80;23.63;;;12.60;99.90;;;12.78;82.31;102483.75;5092538;28;20043;-69
2021/05/28 06:53:18;;;;;;;31.20;23.23;;;12.50;99.90;;;13.07;82.08;102480.63;5092417;28;20055;-66
2021/05/28 06:55:46;;;;;;;27.88;22.77;;;12.80;99.90;;;13.00;81.59;102484.06;5092358;28;20051;-70
2021/05/28 06:58:16;;;;;;;28.98;21.63;;;12.70;99.90;;;13.22;81.36;102483.44;5074169;28;20405;-70
2021/05/28 07:00:44;;;;;;;32.55;22.23;;;12.90;99.90;;;13.05;80.87;102482.38;5092335;28;20060;-67
2021/05/28 07:03:12;;;;;;;30.08;22.23;;;12.90;99.90;;;12.82;81.38;102478.53;5092362;28;20052;-65
2021/05/28 07:05:40;;;;;;;31.10;22.52;;;12.60;99.90;;;12.55;81.54;102478.19;5092308;28;20147;-65
2021/05/28 07:08:09;;;;;;;32.95;23.63;;;12.40;99.90;;;12.93;81.28;102514.06;5091779;28;20063;-71
2021/05/28 07:10:37;;;;;;;28.67;23.20;;;12.60;99.90;;;13.16;80.65;102472.75;5092113;28;20083;-67
2021/05/28 07:13:05;;;;;;;31.83;22.70;;;12.90;99.90;;;13.35;80.20;102481.81;5091981;28;20101;-67
2021/05/28 07:15:36;;;;;;;30.63;23.38;;;13.10;99.90;;;13.72;80.15;102483.97;5074142;28;20493;-71
2021/05/28 07:18:04;;;;;;;37.40;25.65;;;13.40;99.90;;;13.93;79.91;102476.16;5091808;28;20044;-77
2021/05/28 07:20:32;;;;;;;36.60;25.10;;;13.70;99.90;;;14.10;79.00;102482.47;5092188;28;20040;-77
2021/05/28 07:23:00;;;;;;;32.63;25.10;;;13.80;99.90;;;14.35;78.21;102481.78;5091913;28;20108;-71
2021/05/28 07:25:29;;;;;;;34.45;24.23;;;14.10;99.90;;;14.56;76.88;102491.66;5073468;28;20483;-73
2021/05/28 07:27:58;;;;;;;31.38;24.73;;;14.40;99.90;;;14.77;75.77;102498.88;5091899;28;20131;-72
2021/05/28 07:30:29;;;;;;;33.45;23.70;;;14.60;99.90;;;15.00;75.47;102489.22;5096043;28;20040;-75
2021/05/28 07:32:56;;;;;;;32.15;23.35;;;14.80;99.90;;;14.36;74.94;102483.56;5096000;28;20052;-69
2021/05/28 07:35:24;;;;;;;32.70;24.55;;;14.40;99.90;;;14.12;76.90;102488.69;5095792;28;20052;-73
2021/05/28 07:37:52;;;;;;;29.63;23.65;;;14.00;99.90;;;14.37;75.94;102489.78;5095679;28;20066;-72
2021/05/28 07:40:21;;;;;;;90.40;26.23;;;14.10;99.90;;;14.75;75.61;102493.53;5095379;28;20574;-69
2021/05/28 07:42:50;;;;;;;31.42;23.55;;;14.40;99.90;;;14.94;75.27;102492.72;5095499;28;20075;-69
2021/05/28 07:45:18;;;;;;;29.15;22.67;;;14.60;99.90;;;15.16;74.15;102489.25;5077447;28;20459;-65
2021/05/28 07:47:46;;;;;;;71.72;25.25;;;14.90;99.90;;;15.39;73.22;102490.19;5095609;28;20052;-65
2021/05/28 07:50:15;;;;;;;63.03;23.88;;;15.20;99.90;;;15.35;71.93;102475.06;5095504;28;20044;-65
2021/05/28 07:52:43;;;;;;;35.78;23.30;;;15.30;99.90;;;15.69;72.18;102476.03;5095616;28;20093;-65
2021/05/28 07:55:12;;;;;;;30.65;21.95;;;15.50;99.90;;;15.87;71.62;102473.34;5095214;28;20067;-65
2021/05/28 07:57:40;;;;;;;31.75;21.48;;;15.70;99.90;;;15.69;70.60;102459.13;5095135;28;20036;-66
2021/05/28 08:00:13;;;;;;;26.48;20.80;;;15.60;99.90;;;15.66;69.16;102461.81;5095203;28;20047;-72
2021/05/28 08:02:46;;;;;;;32.28;18.98;;;15.40;99.90;;;15.63;68.61;102461.78;5095261;28;20101;-67
2021/05/28 08:05:15;;;;;;;37.30;18.73;;;15.50;99.90;;;15.53;69.09;102468.00;5095105;28;20048;-64
2021/05/28 08:07:43;;;;;;;24.10;19.08;;;15.30;99.90;;;15.77;68.55;102466.25;5095194;28;20068;-65
2021/05/28 08:10:12;;;;;;;25.25;17.95;;;15.50;99.90;;;15.80;68.09;102465.34;5095174;28;20056;-67
2021/05/28 08:12:40;;;;;;;19.40;17.13;;;15.60;99.90;;;16.12;68.07;102479.56;5095194;28;20051;-71
2021/05/28 08:15:10;;;;;;;22.67;17.00;;;15.80;99.90;;;16.34;67.67;102470.63;5095124;28;20047;-70
2021/05/28 08:17:38;;;;;;;21.70;16.40;;;16.10;99.90;;;16.70;67.80;102485.69;5095131;28;20097;-68
2021/05/28 08:20:08;;;;;;;18.70;14.05;;;16.50;99.90;;;16.50;64.71;102490.19;5076677;28;20394;-80
2021/05/28 08:22:37;;;;;;;15.30;12.00;;;16.40;99.90;;;16.06;62.69;102491.16;5095036;28;20083;-73
2021/05/28 08:25:06;;;;;;;17.92;13.10;;;16.10;99.90;;;15.95;64.52;102490.25;5094448;28;20055;-71
2021/05/28 08:27:34;;;;;;;15.27;11.88;;;15.80;99.90;;;16.08;64.09;102465.34;5076597;28;20474;-76
2021/05/28 08:30:04;;;;;;;17.58;12.35;;;15.90;99.90;;;16.06;64.01;102419.06;5076663;28;20105;-72
2021/05/28 08:32:33;;;;;;;18.30;13.40;;;16.20;99.90;;;16.86;63.24;102492.75;5094913;28;20522;-75
2021/05/28 08:35:01;;;;;;;19.80;13.85;;;16.60;99.90;;;17.11;62.68;102494.44;5094876;28;20327;-68
2021/05/28 08:37:29;;;;;;;16.98;12.30;;;16.90;99.90;;;17.33;62.72;102495.16;5094317;28;20103;-68
2021/05/28 08:39:57;;;;;;;20.65;12.57;;;17.20;99.90;;;17.45;62.77;102489.75;5094401;28;20451;-69
2021/05/28 08:42:25;;;;;;;18.10;12.57;;;17.30;99.90;;;16.97;60.61;102491.81;5094396;28;20101;-68
2021/05/28 08:44:53;;;;;;;16.88;12.32;;;17.00;99.90;;;17.19;60.56;102492.56;5076399;28;20052;-70
2021/05/28 08:47:22;;;;;;;15.80;11.38;;;17.00;99.90;;;17.49;59.82;102491.53;5094407;28;20047;-68
2021/05/28 08:49:53;;;;;;;14.60;10.95;;;17.20;99.90;;;17.69;59.71;102489.63;5094105;28;20048;-67
2021/05/28 08:52:23;;;;;;;14.38;12.20;;;17.50;99.90;;;17.74;59.49;102483.31;5094428;28;20059;-66
2021/05/28 08:54:51;;;;;;;15.38;12.88;;;17.60;99.90;;;17.92;59.61;102491.19;5094192;28;20110;-66
2021/05/28 08:57:22;;;;;;;15.70;11.40;;;17.80;99.90;;;17.90;58.57;102471.56;5094465;28;20036;-66
2021/05/28 08:59:50;;;;;;;18.85;11.73;;;17.90;99.90;;;18.17;58.21;102489.19;5094324;28;20037;-68
2021/05/28 09:02:30;;;;;;;15.45;11.20;;;18.00;99.90;;;18.17;57.36;102461.50;5075873;28;20052;-68
2021/05/28 09:05:09;;;;;;;17.83;11.90;;;18.20;99.90;;;18.18;56.36;102488.28;5094281;28;20056;-66
2021/05/28 09:07:39;;;;;;;14.35;10.38;;;18.10;99.90;;;17.89;58.42;102487.66;5094095;28;20056;-71
2021/05/28 09:10:33;;;;;;;13.80;9.75;;;17.70;99.90;;;17.89;57.33;102482.28;5093887;28;20097;-68
2021/05/28 09:13:17;;;;;;;13.88;10.30;;;17.70;99.90;;;17.73;57.88;102475.31;5093792;28;20052;-69
2021/05/28 09:15:47;;;;;;;14.65;9.77;;;17.50;99.90;;;17.78;57.56;102477.03;5094067;28;20047;-67
2021/05/28 09:18:15;;;;;;;18.23;10.70;;;17.60;99.90;;;17.72;57.55;102444.97;5093526;28;20044;-67
2021/05/28 09:20:55;;;;;;;13.02;9.70;;;17.70;99.90;;;17.97;57.34;102475.97;5093854;28;20116;-67
2021/05/28 09:23:23;;;;;;;12.60;9.57;;;17.80;99.90;;;18.14;57.56;102475.81;5093845;28;20051;-67
2021/05/28 09:26:01;;;;;;;10.82;7.47;;;17.90;99.90;;;18.12;56.18;102468.72;5093645;28;20052;-67
2021/05/28 09:28:37;;;;;;;10.68;8.07;;;18.10;99.90;;;17.25;56.22;102463.13;5093739;28;20121;-67
2021/05/28 09:31:08;;;;;;;12.75;8.32;;;17.40;99.90;;;17.16;57.37;102463.19;5093653;28;20048;-67
2021/05/28 09:33:39;;;;;;;11.80;7.95;;;17.10;99.90;;;17.01;57.47;102466.81;5093414;28;20070;-67
2021/05/28 09:36:18;;;;;;;11.48;7.80;;;16.80;99.90;;;17.30;56.55;102466.66;5093641;28;20043;-68
2021/05/28 09:39:01;;;;;;;8.93;7.80;;;17.00;99.90;;;17.15;57.35;102469.41;5093509;28;20047;-67
2021/05/28 09:41:45;;;;;;;10.75;8.45;;;16.80;99.90;;;17.29;57.29;102466.66;5093822;28;20044;-68
2021/05/28 09:44:17;;;;;;;11.05;8.50;;;16.90;99.90;;;17.71;56.70;102469.94;5093499;28;20053;-69
2021/05/28 09:47:10;;;;;;;11.43;7.90;;;17.40;99.90;;;18.12;56.03;102466.03;5093530;28;20048;-70
2021/05/28 09:49:41;;;;;;;14.57;8.07;;;17.80;99.90;;;18.32;55.86;102472.94;5093111;28;20040;-68
2021/05/28 09:52:14;;;;;;;10.57;7.00;;;18.10;99.90;;;18.28;55.96;102465.84;5074712;28;20101;-69
2021/05/28 09:54:56;;;;;;;10.43;6.90;;;18.10;99.90;;;17.92;55.12;102451.00;5093347;28;20043;-69
2021/05/28 09:57:30;;;;;;;7.93;6.80;;;17.80;99.90;;;17.73;55.29;102461.94;5093366;28;20059;-69
2021/05/28 09:59:59;;;;;;;7.05;6.18;;;17.60;99.90;;;17.88;56.41;102467.16;5092769;28;20044;-69
2021/05/28 10:02:30;;;;;;;8.73;6.38;;;17.60;99.90;;;17.92;53.48;102458.19;5092894;28;20493;-69
2021/05/28 10:04:59;;;;;;;9.98;6.28;;;17.70;99.90;;;18.23;53.35;102462.34;5093118;28;20385;-69
2021/05/28 10:07:30;;;;;;;7.90;6.35;;;18.00;99.90;;;18.20;53.39;102427.53;5074805;28;20048;-68
2021/05/28 10:10:08;;;;;;;12.82;6.10;;;18.20;99.90;;;17.78;53.45;102452.06;5093096;28;20063;-70